Urbana, Illinois
Current Conditions -  °F | °C
As of 8:53 AM on Friday 24 Oct 2014 (Local Time) from KCMI Reporting Station
Scattered Clouds Scattered Clouds  
Wind Chill: 52°   Ceiling: Unl
Heat Index: 52°   Visibility: 9mi
Dew Point: 49°   Wind: 8mph
Humidity: 89%   Direction: 220°SW
Pressure: 30.1"   Gusts: NA
Location:  40.12°N, 88.2°W
Report Text: KCMI 241353Z 22007KT 9SM SCT016 SCT065 11/09 A3010 RMK AO2 SLP194 T01110094 $
Loading
Personal Weather Stations






























Interactive Weather Map
Tropical Storm Tracking
New forecast layout! Learn more

10-Day Weather Forecast

Advertisements
Track Severe Weather on mobile